Time;durP1;ratioP1;P1;durP2;ratioP2;P2;SDS_P1;SDS_P2;PMS_P1;PMS_P2;Temp;Humidity;BMP_temperature;BMP_pressure;BME280_temperature;BME280_humidity;BME280_pressure;Samples;Min_cycle;Max_cycle;Signal;HPM_P1;HPM_P2
2023/06/12 00:01:13;;;;;;;4.68;2.20;;;19.50;92.80;;;;;;5071542;28;20439;-90
2023/06/12 00:03:42;;;;;;;3.13;2.20;;;19.50;93.30;;;;;;5088707;28;20427;-89
2023/06/12 00:06:09;;;;;;;4.50;1.98;;;19.40;93.60;;;;;;5088453;28;20411;-88
2023/06/12 00:08:36;;;;;;;4.18;2.13;;;19.70;94.00;;;;;;5088831;28;20978;-90
2023/06/12 00:11:07;;;;;;;3.92;2.10;;;19.40;94.30;;;;;;5072088;28;20392;-89
2023/06/12 00:13:33;;;;;;;4.75;2.20;;;19.20;92.70;;;;;;5071172;28;20392;-90
2023/06/12 00:15:59;;;;;;;4.28;2.10;;;19.20;95.00;;;;;;5088253;28;20396;-89
2023/06/12 00:18:24;;;;;;;6.57;1.93;;;19.20;94.20;;;;;;5088198;28;20808;-88
2023/06/12 00:20:50;;;;;;;4.85;2.13;;;19.20;94.70;;;;;;5071488;28;20407;-91
2023/06/12 00:23:16;;;;;;;5.07;2.20;;;19.20;95.70;;;;;;5087936;28;20444;-91
2023/06/12 00:25:42;;;;;;;4.07;2.15;;;19.00;95.50;;;;;;5071509;28;20419;-89
2023/06/12 00:28:07;;;;;;;5.03;1.80;;;19.50;96.00;;;;;;5087729;28;20404;-89
2023/06/12 00:30:33;;;;;;;3.33;2.00;;;19.10;95.90;;;;;;5104784;28;21128;-88
2023/06/12 00:32:58;;;;;;;5.30;2.10;;;19.00;95.60;;;;;;5071100;28;20475;-87
2023/06/12 00:35:24;;;;;;;4.72;1.88;;;19.00;96.40;;;;;;5071592;28;20408;-91
2023/06/12 00:37:50;;;;;;;3.27;1.80;;;19.30;96.10;;;;;;5071318;28;20412;-90
2023/06/12 00:40:16;;;;;;;4.07;2.03;;;18.90;95.70;;;;;;5088026;28;20414;-90
2023/06/12 00:42:47;;;;;;;5.03;2.00;;;18.80;97.00;;;;;;5087867;28;20511;-89
2023/06/12 00:45:21;;;;;;;6.18;2.00;;;18.80;97.80;;;;;;5071320;28;20404;-91
2023/06/12 00:47:52;;;;;;;3.90;1.90;;;18.70;97.80;;;;;;5122227;27;20457;-87
2023/06/12 00:50:19;;;;;;;3.83;1.92;;;18.70;98.10;;;;;;5088223;28;20499;-89
2023/06/12 00:52:47;;;;;;;5.03;1.90;;;18.60;98.20;;;;;;5071675;28;20961;-90
2023/06/12 00:55:14;;;;;;;3.55;1.65;;;18.60;98.80;;;;;;5087986;28;20400;-89
2023/06/12 00:57:41;;;;;;;5.80;2.28;;;18.60;99.00;;;;;;5121831;27;20408;-90
2023/06/12 01:00:12;;;;;;;4.80;2.15;;;18.50;99.50;;;;;;5087915;28;20917;-90
2023/06/12 01:02:42;;;;;;;3.47;2.00;;;18.40;99.70;;;;;;5071449;28;20466;-89
2023/06/12 01:05:11;;;;;;;4.97;2.17;;;18.30;99.50;;;;;;5087992;28;20447;-89
2023/06/12 01:07:48;;;;;;;5.47;2.25;;;18.60;99.90;;;;;;5088288;28;20430;-90
2023/06/12 01:10:22;;;;;;;3.45;2.25;;;18.20;99.90;;;;;;5088001;28;20874;-89
2023/06/12 01:12:49;;;;;;;5.13;2.00;;;18.20;99.70;;;;;;5105012;28;20405;-89
2023/06/12 01:15:15;;;;;;;6.40;2.20;;;18.20;99.70;;;;;;5088057;28;20404;-91
2023/06/12 01:17:41;;;;;;;3.80;1.95;;;18.00;99.70;;;;;;5071112;28;20404;-89
2023/06/12 01:20:11;;;;;;;4.77;2.00;;;18.10;99.90;;;;;;5087895;28;20416;-90
2023/06/12 01:22:58;;;;;;;4.80;2.00;;;18.10;99.90;;;;;;5087373;28;20940;-89
2023/06/12 01:25:35;;;;;;;4.05;2.00;;;18.00;99.90;;;;;;5071440;28;20492;-89
2023/06/12 01:28:37;;;;;;;6.78;2.15;;;17.90;99.90;;;;;;5091154;28;20412;-88
2023/06/12 01:31:14;;;;;;;5.40;2.00;;;17.80;99.90;;;;;;5091323;28;20410;-90
2023/06/12 01:33:48;;;;;;;3.80;1.73;;;17.80;99.90;;;;;;5091129;28;20404;-89
2023/06/12 01:36:19;;;;;;;5.43;1.67;;;17.70;99.90;;;;;;5074482;28;20408;-88
2023/06/12 01:38:52;;;;;;;3.97;2.08;;;17.70;99.90;;;;;;5091307;28;20412;-88
2023/06/12 01:41:21;;;;;;;2.90;1.60;;;17.70;99.90;;;;;;5073677;28;20407;-89
2023/06/12 01:43:46;;;;;;;6.15;1.95;;;17.90;99.90;;;;;;5073804;28;20797;-89
2023/06/12 01:46:12;;;;;;;6.27;1.90;;;17.50;99.90;;;;;;5074285;28;20475;-89
2023/06/12 01:48:39;;;;;;;7.38;2.05;;;17.50;99.90;;;;;;5091086;28;20404;-88
2023/06/12 01:51:04;;;;;;;4.53;1.80;;;17.50;99.90;;;;;;5074720;28;20789;-89
2023/06/12 01:53:30;;;;;;;4.32;2.05;;;17.70;99.90;;;;;;5057345;28;20405;-89
2023/06/12 01:55:57;;;;;;;5.40;2.00;;;17.40;99.90;;;;;;5091117;28;20994;-90
2023/06/12 01:58:22;;;;;;;3.88;2.08;;;17.40;99.90;;;;;;5074372;28;20447;-89
2023/06/12 02:00:48;;;;;;;7.30;2.40;;;17.30;99.90;;;;;;5090912;28;20824;-90
2023/06/12 02:03:14;;;;;;;5.30;1.90;;;17.20;99.90;;;;;;5090255;28;20945;-89
2023/06/12 02:05:39;;;;;;;4.10;1.87;;;17.60;99.90;;;;;;5073547;28;20392;-89
2023/06/12 02:08:05;;;;;;;5.80;2.03;;;17.10;99.90;;;;;;5108005;28;20443;-89
2023/06/12 02:10:30;;;;;;;7.33;2.07;;;17.10;99.90;;;;;;5090462;28;20400;-87
2023/06/12 02:12:56;;;;;;;6.22;1.90;;;17.00;99.90;;;;;;5124636;27;20393;-89
2023/06/12 02:15:21;;;;;;;3.50;1.90;;;17.50;99.90;;;;;;5090835;28;20919;-88
2023/06/12 02:17:47;;;;;;;3.15;2.03;;;17.70;99.90;;;;;;5091202;28;20412;-91
2023/06/12 02:20:13;;;;;;;4.80;1.87;;;17.00;99.90;;;;;;5090297;28;20397;-90
2023/06/12 02:22:38;;;;;;;3.47;1.88;;;16.90;99.90;;;;;;5124392;27;20424;-90
2023/06/12 02:25:04;;;;;;;3.23;2.10;;;17.10;99.90;;;;;;5090154;28;20408;-88
2023/06/12 02:27:30;;;;;;;3.72;2.35;;;16.90;99.90;;;;;;5072455;28;20986;-89
2023/06/12 02:29:56;;;;;;;5.18;2.40;;;17.10;99.90;;;;;;5073165;28;20408;-89
2023/06/12 02:32:21;;;;;;;5.87;2.17;;;16.70;99.90;;;;;;5089923;28;20405;-89
2023/06/12 02:34:48;;;;;;;4.10;2.38;;;17.20;99.90;;;;;;5090134;28;20507;-88
2023/06/12 02:37:14;;;;;;;4.60;2.20;;;16.70;99.90;;;;;;5123959;27;20401;-88
2023/06/12 02:39:39;;;;;;;3.38;1.80;;;16.70;99.90;;;;;;5090185;28;20415;-89
2023/06/12 02:42:05;;;;;;;5.40;2.00;;;16.70;99.90;;;;;;5089428;28;20934;-89
2023/06/12 02:44:31;;;;;;;4.03;2.25;;;16.60;99.90;;;;;;5088847;28;20412;-88
2023/06/12 02:46:58;;;;;;;7.00;2.00;;;16.80;99.90;;;;;;5106897;28;20407;-89
2023/06/12 02:49:26;;;;;;;3.53;1.88;;;16.50;99.90;;;;;;5089457;28;20428;-88
2023/06/12 02:51:52;;;;;;;5.68;2.15;;;16.50;99.90;;;;;;5072742;28;20464;-89
2023/06/12 02:54:20;;;;;;;5.43;2.00;;;16.50;99.90;;;;;;5072816;28;20491;-89
2023/06/12 02:56:46;;;;;;;4.30;2.37;;;16.90;99.90;;;;;;5089700;28;20413;-89
2023/06/12 02:59:16;;;;;;;5.78;1.98;;;16.40;99.90;;;;;;5089333;28;20419;-88
2023/06/12 03:01:45;;;;;;;4.97;2.00;;;16.50;99.90;;;;;;5089232;28;20389;-87
2023/06/12 03:04:16;;;;;;;4.70;2.30;;;16.30;99.90;;;;;;5089370;28;20508;-88
2023/06/12 03:06:44;;;;;;;5.38;2.40;;;16.60;99.90;;;;;;5072291;28;20420;-88
2023/06/12 03:09:11;;;;;;;4.88;2.28;;;16.40;99.90;;;;;;5123260;27;20744;-90
2023/06/12 03:11:36;;;;;;;4.07;2.13;;;16.40;99.90;;;;;;5072015;28;20489;-89
2023/06/12 03:14:03;;;;;;;4.28;2.25;;;16.30;99.90;;;;;;5072249;28;20481;-89
2023/06/12 03:16:30;;;;;;;6.03;2.58;;;16.00;99.90;;;;;;5089392;28;20423;-88
2023/06/12 03:18:57;;;;;;;5.13;2.88;;;16.00;99.90;;;;;;5088977;28;20468;-88
2023/06/12 03:21:23;;;;;;;5.55;2.92;;;15.90;99.90;;;;;;5089307;28;20483;-88
2023/06/12 03:23:48;;;;;;;5.68;2.70;;;15.80;99.90;;;;;;5071644;28;20519;-88
2023/06/12 03:26:14;;;;;;;5.53;2.80;;;16.00;99.90;;;;;;5088886;28;20974;-89
2023/06/12 03:28:40;;;;;;;4.78;2.80;;;15.60;99.90;;;;;;5088718;28;20470;-88
2023/06/12 03:31:07;;;;;;;5.53;3.28;;;15.50;99.90;;;;;;5105168;28;20496;-88
2023/06/12 03:33:33;;;;;;;5.10;3.05;;;15.50;99.90;;;;;;5088582;28;20845;-88
2023/06/12 03:35:58;;;;;;;5.60;2.90;;;15.70;99.90;;;;;;5072195;28;20449;-89
2023/06/12 03:38:24;;;;;;;5.50;3.20;;;15.40;99.90;;;;;;5071656;28;20744;-89
2023/06/12 03:40:50;;;;;;;7.10;3.10;;;15.30;99.90;;;;;;5088184;28;20465;-88
2023/06/12 03:43:15;;;;;;;5.20;3.13;;;15.40;99.90;;;;;;5088475;28;20503;-88
2023/06/12 03:45:41;;;;;;;7.20;3.20;;;15.40;99.90;;;;;;5105267;28;20396;-88
2023/06/12 03:48:06;;;;;;;9.00;3.88;;;15.30;99.90;;;;;;5104903;28;20628;-88
2023/06/12 03:50:32;;;;;;;4.70;2.90;;;15.70;99.90;;;;;;5071451;28;20959;-88
2023/06/12 03:52:58;;;;;;;4.95;3.33;;;15.20;99.90;;;;;;5122667;27;20389;-88
2023/06/12 03:55:24;;;;;;;7.00;3.67;;;15.20;99.90;;;;;;5104834;28;20412;-89
2023/06/12 03:57:50;;;;;;;7.85;3.42;;;15.20;99.90;;;;;;5088238;28;20412;-88
2023/06/12 04:00:16;;;;;;;5.87;3.43;;;15.40;99.90;;;;;;5088372;28;20480;-88
2023/06/12 04:02:42;;;;;;;5.70;3.15;;;15.20;99.90;;;;;;5071336;28;20424;-89
2023/06/12 04:05:08;;;;;;;5.63;3.15;;;15.20;99.90;;;;;;5071443;28;20782;-89
2023/06/12 04:07:38;;;;;;;6.82;3.80;;;15.20;99.90;;;;;;5071647;28;20409;-89
2023/06/12 04:10:04;;;;;;;7.95;3.80;;;15.20;99.90;;;;;;5122503;27;20424;-87
2023/06/12 04:12:30;;;;;;;5.13;3.42;;;15.30;99.90;;;;;;5070792;28;20406;-89
2023/06/12 04:14:56;;;;;;;6.65;3.35;;;15.30;99.90;;;;;;5105226;28;20443;-89
2023/06/12 04:17:23;;;;;;;6.43;3.53;;;15.40;99.90;;;;;;5088241;28;20499;-89
2023/06/12 04:19:49;;;;;;;7.32;3.67;;;15.50;99.90;;;;;;5070928;28;20979;-88
2023/06/12 04:22:16;;;;;;;5.70;3.63;;;15.50;99.90;;;;;;5071152;28;20428;-87
2023/06/12 04:24:42;;;;;;;5.72;3.75;;;15.60;99.90;;;;;;5087874;28;20400;-89
2023/06/12 04:27:11;;;;;;;8.82;3.33;;;16.00;99.90;;;;;;5087744;28;20404;-88
2023/06/12 04:29:38;;;;;;;5.35;3.38;;;15.80;99.90;;;;;;5065188;28;20415;-88
2023/06/12 04:32:07;;;;;;;6.75;3.40;;;15.90;99.90;;;;;;5088127;28;20907;-89
2023/06/12 04:34:43;;;;;;;9.00;3.17;;;16.10;99.90;;;;;;5087448;28;20420;-89
2023/06/12 04:37:13;;;;;;;7.22;3.42;;;16.40;99.90;;;;;;5085926;28;20771;-89
2023/06/12 04:39:43;;;;;;;6.13;3.30;;;16.30;99.90;;;;;;5071234;28;20986;-88
2023/06/12 04:42:10;;;;;;;6.30;3.20;;;16.80;99.90;;;;;;5067965;28;20401;-89
2023/06/12 04:44:37;;;;;;;6.28;3.53;;;16.70;99.90;;;;;;5087852;28;20937;-88
2023/06/12 04:47:10;;;;;;;5.30;3.35;;;16.70;99.90;;;;;;5070739;28;20397;-88
2023/06/12 04:49:40;;;;;;;5.80;3.30;;;16.90;99.90;;;;;;5087893;28;20404;-89
2023/06/12 04:52:07;;;;;;;5.75;3.30;;;17.00;99.90;;;;;;5070984;28;20411;-89
2023/06/12 04:54:35;;;;;;;7.30;2.90;;;17.10;99.90;;;;;;5070900;28;20450;-88
2023/06/12 04:57:12;;;;;;;7.78;3.50;;;17.30;99.90;;;;;;5071158;28;20408;-88
2023/06/12 04:59:42;;;;;;;5.65;3.05;;;17.40;99.90;;;;;;5070972;28;20423;-89
2023/06/12 05:02:08;;;;;;;6.47;2.90;;;17.90;99.90;;;;;;5091207;28;20397;-88
2023/06/12 05:04:38;;;;;;;7.22;3.22;;;18.00;99.90;;;;;;5125526;27;20404;-88
2023/06/12 05:07:14;;;;;;;5.82;2.90;;;17.80;99.90;;;;;;5091664;28;20412;-89
2023/06/12 05:09:39;;;;;;;7.83;3.50;;;18.00;99.90;;;;;;5074814;28;20393;-89
2023/06/12 05:12:06;;;;;;;4.93;3.20;;;18.10;99.90;;;;;;5074469;28;20463;-88
2023/06/12 05:14:34;;;;;;;5.95;2.92;;;18.30;99.90;;;;;;5074348;28;20443;-89
2023/06/12 05:17:00;;;;;;;5.32;3.28;;;18.40;99.90;;;;;;5074427;28;20428;-88
2023/06/12 05:19:26;;;;;;;7.13;3.40;;;18.60;99.90;;;;;;5125745;27;20423;-90
2023/06/12 05:21:52;;;;;;;6.13;3.45;;;19.10;99.90;;;;;;5108121;28;20404;-89
2023/06/12 05:24:18;;;;;;;6.10;3.10;;;18.80;99.90;;;;;;5074394;28;20938;-88
2023/06/12 05:26:43;;;;;;;6.80;3.27;;;19.00;99.90;;;;;;5090977;28;20413;-88
2023/06/12 05:29:09;;;;;;;7.40;3.50;;;19.20;99.90;;;;;;5074125;28;20495;-88
2023/06/12 05:31:35;;;;;;;7.67;3.50;;;19.50;99.90;;;;;;5108032;28;20407;-88
2023/06/12 05:34:00;;;;;;;4.72;3.25;;;19.30;99.90;;;;;;5074439;28;20397;-88
2023/06/12 05:36:26;;;;;;;5.97;2.90;;;19.50;99.90;;;;;;5125102;27;20417;-89
2023/06/12 05:38:52;;;;;;;6.20;3.28;;;19.70;99.90;;;;;;5074065;28;20400;-89
2023/06/12 05:41:17;;;;;;;7.00;3.50;;;19.70;99.90;;;;;;5073993;28;20454;-89
2023/06/12 05:43:45;;;;;;;7.45;3.53;;;20.10;99.90;;;;;;5073513;28;20424;-88
2023/06/12 05:46:12;;;;;;;6.88;3.50;;;19.70;99.90;;;;;;5091237;28;20434;-90
2023/06/12 05:48:37;;;;;;;9.18;3.70;;;19.90;99.90;;;;;;5125150;27;20471;-88
2023/06/12 05:51:05;;;;;;;6.10;3.50;;;20.00;99.90;;;;;;5073941;28;20538;-90
2023/06/12 05:53:32;;;;;;;6.85;3.45;;;20.00;99.90;;;;;;5074061;28;20400;-89
2023/06/12 05:55:57;;;;;;;5.97;3.33;;;20.40;99.90;;;;;;5073812;28;20404;-88
2023/06/12 05:58:23;;;;;;;8.40;3.65;;;20.30;99.90;;;;;;5090673;28;20814;-89
2023/06/12 06:00:49;;;;;;;7.63;3.78;;;20.70;99.90;;;;;;5073307;28;20878;-89
2023/06/12 06:03:18;;;;;;;4.50;3.30;;;20.50;99.90;;;;;;5090876;28;20416;-89
2023/06/12 06:05:43;;;;;;;6.18;3.10;;;20.50;99.90;;;;;;5090907;28;20496;-88
2023/06/12 06:08:10;;;;;;;5.97;3.35;;;20.70;99.90;;;;;;5107903;28;20393;-89
2023/06/12 06:10:38;;;;;;;6.05;3.38;;;20.80;99.90;;;;;;5090535;28;20404;-91
2023/06/12 06:13:05;;;;;;;6.47;3.72;;;20.90;99.90;;;;;;5090028;28;20546;-88
2023/06/12 06:15:30;;;;;;;8.98;4.00;;;21.00;99.90;;;;;;5073528;28;20404;-89
2023/06/12 06:17:57;;;;;;;7.43;3.77;;;21.00;99.90;;;;;;5073506;28;20416;-90
2023/06/12 06:20:22;;;;;;;7.82;4.10;;;21.30;99.90;;;;;;5073745;28;20483;-89
2023/06/12 06:22:48;;;;;;;7.68;3.50;;;21.20;99.90;;;;;;5073055;28;20886;-89
2023/06/12 06:25:15;;;;;;;7.45;3.63;;;21.30;99.90;;;;;;5107451;28;20452;-89
2023/06/12 06:27:41;;;;;;;7.63;3.70;;;21.40;99.90;;;;;;5073130;28;20408;-90
2023/06/12 06:30:07;;;;;;;7.10;3.60;;;21.50;99.90;;;;;;5073014;28;20550;-89
2023/06/12 06:32:33;;;;;;;6.17;3.70;;;21.60;99.90;;;;;;5073210;28;20813;-90
2023/06/12 06:34:58;;;;;;;6.38;3.53;;;21.70;99.90;;;;;;5090236;28;20400;-89
2023/06/12 06:37:24;;;;;;;6.97;3.70;;;21.80;99.90;;;;;;5073195;28;20423;-89
2023/06/12 06:39:50;;;;;;;7.03;3.80;;;22.20;99.90;;;;;;5089847;28;20408;-90
2023/06/12 06:42:15;;;;;;;7.27;4.27;;;22.00;99.90;;;;;;5089772;28;21012;-90
2023/06/12 06:44:41;;;;;;;9.35;3.92;;;22.00;99.90;;;;;;5123891;27;20392;-88
2023/06/12 06:47:10;;;;;;;6.93;3.43;;;22.00;99.90;;;;;;5089828;28;20401;-88
2023/06/12 06:49:37;;;;;;;7.90;4.10;;;22.40;99.90;;;;;;5073189;28;20918;-90
2023/06/12 06:52:04;;;;;;;6.65;3.60;;;22.20;99.90;;;;;;5090089;28;20408;-90
2023/06/12 06:54:30;;;;;;;8.48;3.90;;;22.30;99.90;;;;;;5089650;28;20409;-90
2023/06/12 06:56:56;;;;;;;6.53;3.60;;;22.50;99.90;;;;;;5089580;28;20752;-91
2023/06/12 06:59:25;;;;;;;6.95;3.85;;;22.60;99.70;;;;;;5072847;28;20435;-90
2023/06/12 07:01:51;;;;;;;6.43;3.88;;;22.60;99.90;;;;;;5089492;28;20427;-91
2023/06/12 07:04:16;;;;;;;7.73;4.20;;;22.60;99.90;;;;;;5089197;28;20435;-90
2023/06/12 07:06:42;;;;;;;6.85;4.35;;;22.80;99.90;;;;;;5072506;28;20415;-88
2023/06/12 07:09:08;;;;;;;6.05;4.30;;;22.90;99.30;;;;;;5089413;28;20461;-89
2023/06/12 07:11:34;;;;;;;6.68;4.00;;;22.90;99.90;;;;;;5088817;28;20449;-89
2023/06/12 07:14:00;;;;;;;6.23;4.10;;;23.10;98.70;;;;;;5088839;28;20491;-90
2023/06/12 07:16:26;;;;;;;7.72;3.80;;;23.00;98.40;;;;;;5089172;28;20396;-89
2023/06/12 07:18:52;;;;;;;6.93;4.00;;;23.40;98.70;;;;;;5089055;28;20412;-89
2023/06/12 07:21:18;;;;;;;8.25;4.22;;;23.50;98.80;;;;;;5089179;28;20829;-89
2023/06/12 07:23:43;;;;;;;8.93;4.67;;;23.50;99.90;;;;;;5088394;28;20436;-90
2023/06/12 07:26:09;;;;;;;8.32;4.68;;;23.40;99.60;;;;;;5071699;28;20420;-89
2023/06/12 07:28:35;;;;;;;6.87;4.57;;;23.60;99.50;;;;;;5088509;28;20477;-89
2023/06/12 07:31:01;;;;;;;7.20;4.63;;;23.90;98.80;;;;;;5088700;28;20389;-89
2023/06/12 07:33:27;;;;;;;8.65;4.65;;;23.60;98.40;;;;;;5088734;28;20403;-88
2023/06/12 07:35:53;;;;;;;7.68;4.50;;;23.70;96.80;;;;;;5071783;28;20408;-89
2023/06/12 07:38:19;;;;;;;7.15;4.72;;;23.70;97.90;;;;;;5072074;28;20412;-90
2023/06/12 07:40:44;;;;;;;7.73;4.90;;;23.50;98.70;;;;;;5088609;28;20408;-88
2023/06/12 07:43:10;;;;;;;7.35;4.45;;;23.60;99.10;;;;;;5071150;28;20929;-89
2023/06/12 07:45:36;;;;;;;7.57;4.67;;;23.70;99.90;;;;;;5071984;28;20419;-89
2023/06/12 07:48:01;;;;;;;7.30;4.65;;;23.90;99.90;;;;;;5088645;28;20457;-89
2023/06/12 07:50:27;;;;;;;8.00;5.10;;;24.00;99.10;;;;;;5071531;28;20427;-90
2023/06/12 07:52:52;;;;;;;7.37;4.60;;;24.00;96.70;;;;;;5088448;28;20469;-89
2023/06/12 07:55:19;;;;;;;5.68;4.57;;;24.10;97.60;;;;;;5088348;28;20479;-89
2023/06/12 07:57:47;;;;;;;6.45;4.97;;;24.20;96.40;;;;;;5071431;28;20451;-89
2023/06/12 08:00:13;;;;;;;8.18;4.93;;;24.00;97.20;;;;;;5105197;28;20965;-89
2023/06/12 08:02:40;;;;;;;6.95;4.72;;;24.30;98.90;;;;;;5071362;28;20424;-89
2023/06/12 08:05:07;;;;;;;5.28;4.25;;;24.30;97.30;;;;;;5071329;28;20885;-91
2023/06/12 08:07:33;;;;;;;7.18;4.13;;;24.50;92.80;;;;;;5088417;28;20483;-90
2023/06/12 08:09:59;;;;;;;7.47;4.47;;;24.60;96.30;;;;;;5071498;28;20484;-88
2023/06/12 08:12:25;;;;;;;8.35;4.35;;;24.80;97.50;;;;;;5122443;27;20400;-89
2023/06/12 08:14:51;;;;;;;7.53;4.07;;;24.90;94.20;;;;;;5070808;28;20416;-89
2023/06/12 08:17:17;;;;;;;6.57;3.80;;;25.10;97.40;;;;;;5071029;28;20411;-88
2023/06/12 08:19:43;;;;;;;6.20;4.38;;;25.20;97.60;;;;;;5070925;28;20400;-89
2023/06/12 08:22:09;;;;;;;8.02;4.13;;;25.40;92.10;;;;;;5087643;28;20434;-89
2023/06/12 08:24:41;;;;;;;8.07;4.50;;;25.40;92.90;;;;;;5071342;28;20767;-90
2023/06/12 08:27:06;;;;;;;6.70;4.13;;;25.60;92.90;;;;;;5068056;28;20462;-91
2023/06/12 08:29:33;;;;;;;7.65;4.68;;;25.70;96.40;;;;;;5105180;28;20416;-89
2023/06/12 08:31:58;;;;;;;6.87;4.33;;;25.70;89.50;;;;;;5070748;28;20503;-89
2023/06/12 08:34:25;;;;;;;6.28;4.13;;;25.80;91.20;;;;;;5089456;28;20490;-90
2023/06/12 08:36:52;;;;;;;4.90;3.45;;;26.20;84.80;;;;;;5111356;28;20400;-88
2023/06/12 08:39:18;;;;;;;6.28;3.35;;;25.80;79.90;;;;;;5111863;28;20498;-89
2023/06/12 08:42:07;;;;;;;6.03;3.53;;;25.80;83.40;;;;;;5077670;28;20549;-90
2023/06/12 08:44:33;;;;;;;5.45;3.63;;;26.00;74.80;;;;;;5077994;28;20404;-89
2023/06/12 08:47:01;;;;;;;6.65;3.60;;;26.20;78.40;;;;;;5077536;28;20404;-90
2023/06/12 08:49:29;;;;;;;5.47;3.22;;;26.30;77.70;;;;;;5077418;28;20403;-88
2023/06/12 08:51:54;;;;;;;6.05;3.33;;;26.40;71.30;;;;;;5094827;28;20408;-89
2023/06/12 08:54:20;;;;;;;7.87;3.80;;;26.40;73.10;;;;;;5094489;28;20495;-89
2023/06/12 08:56:46;;;;;;;6.22;3.05;;;26.50;68.60;;;;;;5111390;28;20772;-90
2023/06/12 08:59:13;;;;;;;4.43;3.00;;;26.60;59.70;;;;;;5077488;28;20392;-90
2023/06/12 09:01:39;;;;;;;5.35;2.83;;;26.60;62.10;;;;;;5094372;28;20809;-90
2023/06/12 09:04:21;;;;;;;4.43;3.10;;;26.70;64.00;;;;;;5094534;28;20469;-89
2023/06/12 09:06:49;;;;;;;5.00;3.08;;;26.80;69.20;;;;;;5075616;28;20694;-90
2023/06/12 09:09:15;;;;;;;5.28;3.00;;;26.90;57.00;;;;;;5077621;28;20408;-88
2023/06/12 09:11:41;;;;;;;3.90;2.90;;;26.90;58.60;;;;;;5077370;28;20728;-90
2023/06/12 09:14:08;;;;;;;5.55;3.33;;;26.90;55.20;;;;;;5077517;28;20407;-90
2023/06/12 09:16:33;;;;;;;4.55;2.90;;;27.00;58.00;;;;;;5094515;28;20504;-91
2023/06/12 09:18:59;;;;;;;9.20;3.30;;;27.20;60.70;;;;;;5076932;28;20404;-89
2023/06/12 09:21:25;;;;;;;4.88;2.95;;;27.20;55.50;;;;;;5077647;28;20415;-90
2023/06/12 09:23:52;;;;;;;6.50;3.50;;;27.40;54.70;;;;;;5093919;27;20424;-90
2023/06/12 09:26:21;;;;;;;5.35;3.13;;;27.50;56.10;;;;;;5094096;28;20427;-90
2023/06/12 09:28:53;;;;;;;4.82;3.00;;;27.70;52.00;;;;;;5077303;28;20396;-90
2023/06/12 09:31:20;;;;;;;3.97;3.10;;;27.70;51.50;;;;;;5111486;28;20414;-91
2023/06/12 09:33:49;;;;;;;7.32;3.28;;;27.90;53.90;;;;;;5077272;28;20570;-90
2023/06/12 09:36:16;;;;;;;6.63;3.70;;;27.90;51.30;;;;;;5094207;28;20914;-89
2023/06/12 09:38:41;;;;;;;6.13;3.43;;;27.90;53.90;;;;;;5077371;28;20388;-91
2023/06/12 09:41:08;;;;;;;5.68;2.90;;;28.00;51.50;;;;;;5093878;28;20744;-89
2023/06/12 09:43:34;;;;;;;5.55;3.15;;;28.00;51.30;;;;;;5094157;28;20428;-89
2023/06/12 09:46:06;;;;;;;5.68;3.00;;;28.20;52.10;;;;;;5091925;28;20411;-88
2023/06/12 09:48:38;;;;;;;6.05;3.22;;;28.50;50.60;;;;;;5090660;28;20408;-91
2023/06/12 09:51:06;;;;;;;5.90;3.07;;;28.50;50.80;;;;;;5125177;27;20787;-90
2023/06/12 09:53:36;;;;;;;4.97;3.10;;;28.70;51.00;;;;;;5090730;28;20443;-91
2023/06/12 09:56:06;;;;;;;4.72;3.00;;;28.80;48.60;;;;;;5074227;28;20385;-89
2023/06/12 09:58:36;;;;;;;4.72;2.92;;;28.90;49.00;;;;;;5073819;28;20416;-88
2023/06/12 10:01:05;;;;;;;4.47;3.10;;;29.30;50.80;;;;;;5073720;28;20423;-90
2023/06/12 10:03:34;;;;;;;6.10;3.53;;;29.30;47.80;;;;;;5073642;28;20854;-90
2023/06/12 10:06:03;;;;;;;8.45;3.45;;;29.30;47.70;;;;;;5073415;28;20404;-90
2023/06/12 10:08:30;;;;;;;5.80;3.10;;;29.60;48.10;;;;;;5090891;28;20396;-91
2023/06/12 10:10:55;;;;;;;5.03;3.20;;;29.70;48.80;;;;;;5073459;28;20849;-90
2023/06/12 10:13:22;;;;;;;5.50;3.00;;;30.10;45.80;;;;;;5073489;28;20400;-90
2023/06/12 10:15:49;;;;;;;4.73;2.97;;;30.40;50.50;;;;;;5107283;28;20399;-90
2023/06/12 10:18:16;;;;;;;4.93;3.30;;;30.50;45.90;;;;;;5073403;28;20400;-91
2023/06/12 10:20:42;;;;;;;4.68;3.00;;;30.70;44.60;;;;;;5090093;28;20435;-92
2023/06/12 10:23:09;;;;;;;4.22;2.53;;;30.80;42.30;;;;;;5073079;28;20456;-89
2023/06/12 10:25:35;;;;;;;5.97;2.28;;;31.30;43.10;;;;;;5124487;27;20400;-90
2023/06/12 10:28:01;;;;;;;5.40;2.80;;;31.20;38.30;;;;;;5069824;28;20418;-91
2023/06/12 10:30:27;;;;;;;5.25;2.70;;;31.20;39.00;;;;;;5070311;28;20858;-89
2023/06/12 10:32:52;;;;;;;5.30;2.33;;;31.30;41.20;;;;;;5069412;28;20398;-90
2023/06/12 10:35:31;;;;;;;5.25;2.55;;;31.60;36.80;;;;;;5069693;28;20437;-90
2023/06/12 10:37:57;;;;;;;5.15;2.47;;;31.90;36.40;;;;;;5086330;28;20433;-93
2023/06/12 10:40:23;;;;;;;4.27;2.60;;;32.20;37.20;;;;;;5086752;28;21212;-90
2023/06/12 10:43:00;;;;;;;4.80;2.60;;;32.50;36.60;;;;;;5069151;28;20429;-91
2023/06/12 10:45:27;;;;;;;4.28;2.70;;;32.70;37.10;;;;;;5086429;28;20843;-91
2023/06/12 10:48:02;;;;;;;7.43;2.97;;;33.20;38.60;;;;;;5086647;28;20402;-90
2023/06/12 10:50:42;;;;;;;3.90;2.90;;;33.40;35.60;;;;;;5069052;28;20414;-90
2023/06/12 10:53:12;;;;;;;4.03;2.80;;;33.80;36.30;;;;;;5069888;28;20773;-90
2023/06/12 10:55:38;;;;;;;3.97;2.70;;;34.00;35.70;;;;;;5086155;28;20421;-90
2023/06/12 10:58:06;;;;;;;4.63;2.60;;;34.30;35.50;;;;;;5084429;28;20417;-90
2023/06/12 11:00:36;;;;;;;5.03;2.90;;;34.30;36.40;;;;;;5086089;28;20428;-91
2023/06/12 11:03:03;;;;;;;3.65;2.88;;;34.50;35.40;;;;;;5068902;28;20891;-90
2023/06/12 11:05:30;;;;;;;4.72;3.03;;;34.60;36.20;;;;;;5069363;28;20973;-88
2023/06/12 11:08:00;;;;;;;5.67;3.40;;;34.80;34.10;;;;;;5085577;28;20920;-90
2023/06/12 11:10:27;;;;;;;4.63;2.80;;;34.90;34.30;;;;;;5086296;28;20406;-91
2023/06/12 11:12:53;;;;;;;4.53;3.10;;;35.10;33.70;;;;;;5068754;28;20404;-91
2023/06/12 11:15:21;;;;;;;3.45;2.40;;;35.30;32.90;;;;;;5069282;28;20398;-88
2023/06/12 11:17:46;;;;;;;4.07;3.10;;;35.50;33.60;;;;;;5069050;28;20403;-90
2023/06/12 11:20:13;;;;;;;5.47;2.90;;;35.80;32.60;;;;;;5085563;28;20942;-90
2023/06/12 11:22:38;;;;;;;5.15;2.60;;;36.00;33.50;;;;;;5068566;28;20429;-90
2023/06/12 11:25:05;;;;;;;4.40;2.70;;;36.10;32.80;;;;;;5067873;28;20421;-91
2023/06/12 11:27:31;;;;;;;6.10;3.13;;;36.30;31.30;;;;;;5067693;28;20410;-90
2023/06/12 11:30:12;;;;;;;5.53;3.00;;;36.50;32.50;;;;;;5067755;28;20410;-90
2023/06/12 11:32:39;;;;;;;4.83;2.80;;;36.40;30.60;;;;;;5085813;28;20406;-90
2023/06/12 11:35:09;;;;;;;5.00;2.60;;;36.40;31.80;;;;;;5068684;28;20442;-89
2023/06/12 11:37:37;;;;;;;5.25;2.63;;;36.50;31.20;;;;;;5085238;28;20441;-89
2023/06/12 11:40:14;;;;;;;3.92;2.75;;;36.70;30.90;;;;;;5085551;28;20402;-87
2023/06/12 11:42:41;;;;;;;4.22;2.90;;;36.90;32.70;;;;;;5067689;28;20818;-88
2023/06/12 11:45:12;;;;;;;4.97;2.90;;;37.10;30.60;;;;;;5068600;28;20398;-88
2023/06/12 11:47:38;;;;;;;3.90;2.90;;;37.10;29.80;;;;;;5085352;28;20501;-89
2023/06/12 11:50:06;;;;;;;2.97;2.53;;;37.10;32.30;;;;;;5067973;28;20414;-87
2023/06/12 11:52:33;;;;;;;4.57;2.80;;;37.30;31.60;;;;;;5084788;28;20471;-88
2023/06/12 11:55:00;;;;;;;4.07;2.80;;;37.50;29.40;;;;;;5084979;28;20402;-89
2023/06/12 11:57:30;;;;;;;3.35;2.65;;;37.60;29.90;;;;;;5085162;28;20412;-89
2023/06/12 11:59:58;;;;;;;3.03;2.70;;;37.60;27.80;;;;;;5067767;28;20505;-89
2023/06/12 12:02:38;;;;;;;4.70;2.80;;;37.60;28.70;;;;;;5068137;28;20905;-87
2023/06/12 12:05:06;;;;;;;3.72;2.50;;;37.80;28.90;;;;;;5085006;28;20466;-88
2023/06/12 12:07:32;;;;;;;4.05;2.60;;;38.00;30.60;;;;;;5067602;28;20406;-87
2023/06/12 12:10:09;;;;;;;5.22;2.70;;;37.90;26.90;;;;;;5067388;28;20421;-88
2023/06/12 12:12:45;;;;;;;3.95;2.63;;;37.60;29.40;;;;;;5084826;28;20415;-90
2023/06/12 12:15:13;;;;;;;5.53;2.92;;;37.60;28.90;;;;;;5064729;28;20418;-90
2023/06/12 12:17:39;;;;;;;4.82;3.20;;;37.40;29.00;;;;;;5084906;28;20394;-90
2023/06/12 12:20:13;;;;;;;3.35;3.05;;;37.50;31.10;;;;;;5067794;28;20429;-89
2023/06/12 12:22:45;;;;;;;4.53;3.00;;;37.70;29.40;;;;;;5084787;28;20426;-89
2023/06/12 12:25:22;;;;;;;4.97;3.10;;;37.80;29.60;;;;;;5084417;28;20777;-88
2023/06/12 12:27:49;;;;;;;4.53;3.15;;;38.00;29.40;;;;;;5067445;28;20475;-88
2023/06/12 12:30:20;;;;;;;4.25;2.63;;;38.20;30.20;;;;;;5067247;28;20406;-89
2023/06/12 12:32:52;;;;;;;3.67;2.97;;;38.60;30.00;;;;;;5067799;28;20433;-89
2023/06/12 12:35:22;;;;;;;5.20;3.10;;;39.00;27.80;;;;;;5086077;28;20394;-88
2023/06/12 12:37:50;;;;;;;4.45;2.97;;;39.30;28.70;;;;;;5067326;28;20524;-89
2023/06/12 12:40:16;;;;;;;4.40;2.85;;;39.50;26.60;;;;;;5067491;28;20405;-88
2023/06/12 12:42:47;;;;;;;5.20;3.05;;;39.80;28.00;;;;;;5084076;28;20422;-89
2023/06/12 12:45:15;;;;;;;3.90;2.90;;;39.80;27.20;;;;;;5067634;28;21258;-88
2023/06/12 12:47:44;;;;;;;4.65;3.00;;;40.00;26.80;;;;;;5066962;28;20456;-91
2023/06/12 12:50:10;;;;;;;5.03;2.90;;;39.80;26.60;;;;;;5067624;28;20409;-89